Time;durP1;ratioP1;P1;durP2;ratioP2;P2;SDS_P1;SDS_P2;PMS_P1;PMS_P2;Temp;Humidity;BMP_temperature;BMP_pressure;BME280_temperature;BME280_humidity;BME280_pressure;Samples;Min_cycle;Max_cycle;Signal;HPM_P1;HPM_P2
2021/07/03 00:00:55;;;;;;;;;;;;;;;;;;10319557;28;19926;-62
2021/07/03 00:05:53;;;;;;;;;;;;;;;;;;10317211;28;19936;-65
2021/07/03 00:10:50;;;;;;;;;;;;;;;;;;10319715;28;19917;-65
2021/07/03 00:15:47;;;;;;;;;;;;;;;;;;10317704;28;19917;-65
2021/07/03 00:20:44;;;;;;;;;;;;;;;;;;10310195;28;19917;-63
2021/07/03 00:25:42;;;;;;;;;;;;;;;;;;10318051;28;20291;-65
2021/07/03 00:30:39;;;;;;;;;;;;;;;;;;10311645;28;20302;-62
2021/07/03 00:35:36;;;;;;;;;;;;;;;;;;10319661;28;20274;-63
2021/07/03 00:40:34;;;;;;;;;;;;;;;;;;10320293;28;19928;-64
2021/07/03 00:45:31;;;;;;;;;;;;;;;;;;10316085;28;20016;-64
2021/07/03 00:50:28;;;;;;;;;;;;;;;;;;10295128;22;19929;-58
2021/07/03 00:55:26;;;;;;;;;;;;;;;;;;10247419;28;19913;-58
2021/07/03 01:00:24;;;;;;;;;;;;;;;;;;10256949;28;20252;-58
2021/07/03 01:05:23;;;;;;;;;;;;;;;;;;10276498;28;19912;-57
2021/07/03 01:10:21;;;;;;;;;;;;;;;;;;10254994;28;19924;-59
2021/07/03 01:15:20;;;;;;;;;;;;;;;;;;10265300;28;20323;-58
2021/07/03 01:20:17;;;;;;;;;;;;;;;;;;10273241;28;19920;-58
2021/07/03 01:25:15;;;;;;;;;;;;;;;;;;10263500;28;19982;-57
2021/07/03 01:30:13;;;;;;;;;;;;;;;;;;10248576;28;19983;-57
2021/07/03 01:35:11;;;;;;;;;;;;;;;;;;10262298;28;19978;-57
2021/07/03 01:40:08;;;;;;;;;;;;;;;;;;10261399;28;20008;-57
2021/07/03 01:45:06;;;;;;;;;;;;;;;;;;10267458;28;19923;-58
2021/07/03 01:50:03;;;;;;;;;;;;;;;;;;10242324;28;20246;-56
2021/07/03 01:55:01;;;;;;;;;;;;;;;;;;10251323;28;19913;-57
2021/07/03 01:59:59;;;;;;;;;;;;;;;;;;10248206;28;19960;-58
2021/07/03 02:04:56;;;;;;;;;;;;;;;;;;10257399;28;20296;-57
2021/07/03 02:09:55;;;;;;;;;;;;;;;;;;10260669;28;19917;-58
2021/07/03 02:14:55;;;;;;;;;;;;;;;;;;10261258;28;19996;-58
2021/07/03 02:20:00;;;;;;;;;;;;;;;;;;10273359;28;20295;-57
2021/07/03 02:25:09;;;;;;;;;;;;;;;;;;10256871;28;20344;-57
2021/07/03 02:30:08;;;;;;;;;;;;;;;;;;10273906;28;20004;-55
2021/07/03 02:35:05;;;;;;;;;;;;;;;;;;10254200;28;20039;-57
2021/07/03 02:40:03;;;;;;;;;;;;;;;;;;10271336;28;19913;-56
2021/07/03 02:45:06;;;;;;;;;;;;;;;;;;10252601;28;20277;-57
2021/07/03 02:50:04;;;;;;;;;;;;;;;;;;10260494;28;19922;-57
2021/07/03 02:55:01;;;;;;;;;;;;;;;;;;10263288;28;19963;-58
2021/07/03 02:59:59;;;;;;;;;;;;;;;;;;10287114;28;19913;-59
2021/07/03 03:04:56;;;;;;;;;;;;;;;;;;10270871;28;20015;-56
2021/07/03 03:09:54;;;;;;;;;;;;;;;;;;10269050;28;19989;-55
2021/07/03 03:14:51;;;;;;;;;;;;;;;;;;10287869;28;19917;-56
2021/07/03 03:19:48;;;;;;;;;;;;;;;;;;10287234;28;19913;-58
2021/07/03 03:24:46;;;;;;;;;;;;;;;;;;10269926;28;20273;-56
2021/07/03 03:29:43;;;;;;;;;;;;;;;;;;10280878;28;20417;-57
2021/07/03 03:34:41;;;;;;;;;;;;;;;;;;10280353;28;19919;-58
2021/07/03 03:39:38;;;;;;;;;;;;;;;;;;10287669;28;19909;-55
2021/07/03 03:44:36;;;;;;;;;;;;;;;;;;10296834;28;19925;-56
2021/07/03 03:49:33;;;;;;;;;;;;;;;;;;10297136;28;20027;-57
2021/07/03 03:54:35;;;;;;;;;;;;;;;;;;10270012;28;20004;-58
2021/07/03 03:59:33;;;;;;;;;;;;;;;;;;10288373;28;19917;-55
2021/07/03 04:04:30;;;;;;;;;;;;;;;;;;10279027;28;19949;-58
2021/07/03 04:09:28;;;;;;;;;;;;;;;;;;10281600;28;20241;-58
2021/07/03 04:14:25;;;;;;;;;;;;;;;;;;10296297;28;20391;-56
2021/07/03 04:19:22;;;;;;;;;;;;;;;;;;10296980;28;20380;-55
2021/07/03 04:24:20;;;;;;;;;;;;;;;;;;10295965;28;19967;-56
2021/07/03 04:29:17;;;;;;;;;;;;;;;;;;10251518;28;19960;-54
2021/07/03 04:34:14;;;;;;;;;;;;;;;;;;10239577;28;19947;-57
2021/07/03 04:39:12;;;;;;;;;;;;;;;;;;10246936;28;19910;-58
2021/07/03 04:44:10;;;;;;;;;;;;;;;;;;10235578;28;20665;-58
2021/07/03 04:49:08;;;;;;;;;;;;;;;;;;10261360;28;19944;-56
2021/07/03 04:54:05;;;;;;;;;;;;;;;;;;10265720;28;20331;-58
2021/07/03 04:59:02;;;;;;;;;;;;;;;;;;10257954;28;20355;-58
2021/07/03 05:03:59;;;;;;;;;;;;;;;;;;10247379;28;19960;-57
2021/07/03 05:08:57;;;;;;;;;;;;;;;;;;10243005;28;20352;-57
2021/07/03 05:13:54;;;;;;;;;;;;;;;;;;10242339;28;19936;-58
2021/07/03 05:18:52;;;;;;;;;;;;;;;;;;10252824;28;20008;-60
2021/07/03 05:23:49;;;;;;;;;;;;;;;;;;10245857;28;19909;-58
2021/07/03 05:28:46;;;;;;;;;;;;;;;;;;10253562;28;20067;-62
2021/07/03 05:33:44;;;;;;;;;;;;;;;;;;10244528;28;20825;-58
2021/07/03 05:38:42;;;;;;;;;;;;;;;;;;10249489;28;19909;-58
2021/07/03 05:43:39;;;;;;;;;;;;;;;;;;10250121;28;19913;-58
2021/07/03 05:48:37;;;;;;;;;;;;;;;;;;10250621;28;20388;-56
2021/07/03 05:53:34;;;;;;;;;;;;;;;;;;10244542;28;20332;-59
2021/07/03 05:58:31;;;;;;;;;;;;;;;;;;10247961;28;21070;-58
2021/07/03 06:03:29;;;;;;;;;;;;;;;;;;10252420;28;19972;-60
2021/07/03 06:08:26;;;;;;;;;;;;;;;;;;10260515;28;19909;-59
2021/07/03 06:13:23;;;;;;;;;;;;;;;;;;10253095;28;19932;-57
2021/07/03 06:18:20;;;;;;;;;;;;;;;;;;10241016;28;19920;-56
2021/07/03 06:23:18;;;;;;;;;;;;;;;;;;10250639;28;20790;-59
2021/07/03 06:28:15;;;;;;;;;;;;;;;;;;10233210;28;20018;-57
2021/07/03 06:33:13;;;;;;;;;;;;;;;;;;10251382;28;20323;-56
2021/07/03 06:38:10;;;;;;;;;;;;;;;;;;10238377;28;19936;-57
2021/07/03 06:43:09;;;;;;;;;;;;;;;;;;10253597;28;19952;-56
2021/07/03 06:48:06;;;;;;;;;;;;;;;;;;10264636;28;20407;-57
2021/07/03 06:53:03;;;;;;;;;;;;;;;;;;10235464;28;20668;-57
2021/07/03 06:58:00;;;;;;;;;;;;;;;;;;10243332;28;19913;-56
2021/07/03 07:02:58;;;;;;;;;;;;;;;;;;10248619;28;19939;-56
2021/07/03 07:07:55;;;;;;;;;;;;;;;;;;10247603;28;19960;-54
2021/07/03 07:12:52;;;;;;;;;;;;;;;;;;10251783;28;19917;-57
2021/07/03 07:17:50;;;;;;;;;;;;;;;;;;10259855;28;19913;-59
2021/07/03 07:22:47;;;;;;;;;;;;;;;;;;10253001;28;19952;-57
2021/07/03 07:27:44;;;;;;;;;;;;;;;;;;10278620;28;19909;-57
2021/07/03 07:32:42;;;;;;;;;;;;;;;;;;10244654;28;19952;-57
2021/07/03 07:37:39;;;;;;;;;;;;;;;;;;10251750;28;19963;-57
2021/07/03 07:42:36;;;;;;;;;;;;;;;;;;10260310;28;19917;-54
2021/07/03 07:47:34;;;;;;;;;;;;;;;;;;10256730;28;19963;-56
2021/07/03 07:52:31;;;;;;;;;;;;;;;;;;10247937;28;21524;-56
2021/07/03 07:57:28;;;;;;;;;;;;;;;;;;10259821;28;19929;-57
2021/07/03 08:02:26;;;;;;;;;;;;;;;;;;10230137;28;19918;-58
2021/07/03 08:07:23;;;;;;;;;;;;;;;;;;10257753;28;19913;-59
2021/07/03 08:12:20;;;;;;;;;;;;;;;;;;10250544;28;19935;-58
2021/07/03 08:17:18;;;;;;;;;;;;;;;;;;10236639;28;19913;-57
2021/07/03 08:22:15;;;;;;;;;;;;;;;;;;10258225;28;19913;-59
2021/07/03 08:27:12;;;;;;;;;;;;;;;;;;10221246;28;19918;-57
2021/07/03 08:32:09;;;;;;;;;;;;;;;;;;10275663;28;20023;-57
2021/07/03 08:37:07;;;;;;;;;;;;;;;;;;10259859;28;20340;-58
2021/07/03 08:42:04;;;;;;;;;;;;;;;;;;10264223;28;19917;-58
2021/07/03 08:47:01;;;;;;;;;;;;;;;;;;10238330;28;19917;-57
2021/07/03 08:51:58;;;;;;;;;;;;;;;;;;10266534;28;20150;-59
2021/07/03 08:57:00;;;;;;;;;;;;;;;;;;10260285;28;19963;-54
2021/07/03 09:01:57;;;;;;;;;;;;;;;;;;10245690;28;20455;-56
2021/07/03 09:06:54;;;;;;;;;;;;;;;;;;10202239;28;20461;-57
2021/07/03 09:11:52;;;;;;;;;;;;;;;;;;10207078;28;20006;-56
2021/07/03 09:16:49;;;;;;;;;;;;;;;;;;10228711;28;19921;-57
2021/07/03 09:21:46;;;;;;;;;;;;;;;;;;10211776;28;19918;-57
2021/07/03 09:26:44;;;;;;;;;;;;;;;;;;10259420;28;19967;-58
2021/07/03 09:31:41;;;;;;;;;;;;;;;;;;10243488;28;19962;-58
2021/07/03 09:36:38;;;;;;;;;;;;;;;;;;10260721;28;19916;-58
2021/07/03 09:41:35;;;;;;;;;;;;;;;;;;10244858;28;19919;-59
2021/07/03 09:46:33;;;;;;;;;;;;;;;;;;10232399;28;20165;-59
2021/07/03 09:51:30;;;;;;;;;;;;;;;;;;10259771;28;19917;-59
2021/07/03 09:56:27;;;;;;;;;;;;;;;;;;10240863;28;20063;-60
2021/07/03 10:01:25;;;;;;;;;;;;;;;;;;10255970;28;20277;-60
2021/07/03 10:06:22;;;;;;;;;;;;;;;;;;10229988;28;20016;-60
2021/07/03 10:11:19;;;;;;;;;;;;;;;;;;10254060;28;19924;-60
2021/07/03 10:16:17;;;;;;;;;;;;;;;;;;10262841;28;20191;-60
2021/07/03 10:21:16;;;;;;;;;;;;;;;;;;10233053;28;19917;-59
2021/07/03 10:26:13;;;;;;;;;;;;;;;;;;10262599;28;20004;-60
2021/07/03 10:31:11;;;;;;;;;;;;;;;;;;10257387;28;20405;-61
2021/07/03 10:36:08;;;;;;;;;;;;;;;;;;10281238;28;20105;-62
2021/07/03 10:41:06;;;;;;;;;;;;;;;;;;10244057;28;19917;-59
2021/07/03 10:46:03;;;;;;;;;;;;;;;;;;10260284;28;19917;-60
2021/07/03 10:51:00;;;;;;;;;;;;;;;;;;10273100;28;19917;-60
2021/07/03 10:55:57;;;;;;;;;;;;;;;;;;10268147;28;20345;-61
2021/07/03 11:00:55;;;;;;;;;;;;;;;;;;10272477;28;19913;-61
2021/07/03 11:05:52;;;;;;;;;;;;;;;;;;10274960;28;19939;-59
2021/07/03 11:10:50;;;;;;;;;;;;;;;;;;10269278;28;19924;-62
2021/07/03 11:15:47;;;;;;;;;;;;;;;;;;10273465;28;19921;-60
2021/07/03 11:20:44;;;;;;;;;;;;;;;;;;10259045;28;20010;-58
2021/07/03 11:25:42;;;;;;;;;;;;;;;;;;10272070;28;19917;-61
2021/07/03 11:30:39;;;;;;;;;;;;;;;;;;10263060;28;20292;-61
2021/07/03 11:35:36;;;;;;;;;;;;;;;;;;10265040;28;20109;-61
2021/07/03 11:40:34;;;;;;;;;;;;;;;;;;10258222;28;20473;-61
2021/07/03 11:45:31;;;;;;;;;;;;;;;;;;10267742;28;19924;-63
2021/07/03 11:50:28;;;;;;;;;;;;;;;;;;10262519;28;19999;-62
2021/07/03 11:55:26;;;;;;;;;;;;;;;;;;10258009;28;20287;-63
2021/07/03 12:00:23;;;;;;;;;;;;;;;;;;10276425;28;20289;-60
2021/07/03 12:05:20;;;;;;;;;;;;;;;;;;10257051;28;20120;-63
2021/07/03 12:10:18;;;;;;;;;;;;;;;;;;10241779;28;20074;-60
2021/07/03 12:15:15;;;;;;;;;;;;;;;;;;10267606;28;19919;-63
2021/07/03 12:20:12;;;;;;;;;;;;;;;;;;10256521;28;19913;-61
2021/07/03 12:25:09;;;;;;;;;;;;;;;;;;10255191;28;19944;-63
2021/07/03 12:30:07;;;;;;;;;;;;;;;;;;10269072;28;19964;-60
2021/07/03 12:35:04;;;;;;;;;;;;;;;;;;10273502;28;19913;-58
2021/07/03 12:40:01;;;;;;;;;;;;;;;;;;10244270;28;20261;-59
2021/07/03 12:45:00;;;;;;;;;;;;;;;;;;10245563;28;19914;-59
2021/07/03 12:50:00;;;;;;;;;;;;;;;;;;10247390;28;19982;-58
2021/07/03 12:54:57;;;;;;;;;;;;;;;;;;10259046;28;19914;-59
2021/07/03 12:59:54;;;;;;;;;;;;;;;;;;10268092;28;19917;-59
2021/07/03 13:04:52;;;;;;;;;;;;;;;;;;10241473;28;19917;-58
2021/07/03 13:09:49;;;;;;;;;;;;;;;;;;10266535;28;20304;-59
2021/07/03 13:14:47;;;;;;;;;;;;;;;;;;10252678;28;20031;-59
2021/07/03 13:19:44;;;;;;;;;;;;;;;;;;10267257;28;20562;-58
2021/07/03 13:24:41;;;;;;;;;;;;;;;;;;10251868;28;20203;-59
2021/07/03 13:29:38;;;;;;;;;;;;;;;;;;10273025;28;20384;-59
2021/07/03 13:34:36;;;;;;;;;;;;;;;;;;10261452;28;19951;-59
2021/07/03 13:39:33;;;;;;;;;;;;;;;;;;10252729;28;20008;-58
2021/07/03 13:44:31;;;;;;;;;;;;;;;;;;10249229;28;20172;-58
2021/07/03 13:49:28;;;;;;;;;;;;;;;;;;10255246;28;19943;-58
2021/07/03 13:54:25;;;;;;;;;;;;;;;;;;10263607;28;20027;-58
2021/07/03 13:59:23;;;;;;;;;;;;;;;;;;10268222;28;20580;-57
2021/07/03 14:04:20;;;;;;;;;;;;;;;;;;10242294;28;19909;-58
2021/07/03 14:09:17;;;;;;;;;;;;;;;;;;10267979;28;19917;-57
2021/07/03 14:14:17;;;;;;;;;;;;;;;;;;10247307;28;19909;-58
2021/07/03 14:19:14;;;;;;;;;;;;;;;;;;10250272;28;19917;-58
2021/07/03 14:24:11;;;;;;;;;;;;;;;;;;10259688;28;19917;-58
2021/07/03 14:29:09;;;;;;;;;;;;;;;;;;10254919;28;20402;-57
2021/07/03 14:34:06;;;;;;;;;;;;;;;;;;10258861;28;19921;-58
2021/07/03 14:39:03;;;;;;;;;;;;;;;;;;10258486;28;20254;-57
2021/07/03 14:44:00;;;;;;;;;;;;;;;;;;10259006;28;20000;-58
2021/07/03 14:48:58;;;;;;;;;;;;;;;;;;10222294;28;19921;-59
2021/07/03 14:53:55;;;;;;;;;;;;;;;;;;10260003;28;19928;-59
2021/07/03 14:58:52;;;;;;;;;;;;;;;;;;10255333;28;19914;-60
2021/07/03 15:03:50;;;;;;;;;;;;;;;;;;10247457;28;19936;-57
2021/07/03 15:08:47;;;;;;;;;;;;;;;;;;10243623;28;19964;-59
2021/07/03 15:13:44;;;;;;;;;;;;;;;;;;10247952;28;19956;-59
2021/07/03 15:18:42;;;;;;;;;;;;;;;;;;10253177;28;20303;-61
2021/07/03 15:23:39;;;;;;;;;;;;;;;;;;10248403;28;19920;-60
2021/07/03 15:28:36;;;;;;;;;;;;;;;;;;10264123;28;20357;-56
2021/07/03 15:33:34;;;;;;;;;;;;;;;;;;10264134;28;20266;-62
2021/07/03 15:38:31;;;;;;;;;;;;;;;;;;10263028;28;19917;-57
2021/07/03 15:43:28;;;;;;;;;;;;;;;;;;10264432;28;19913;-60
2021/07/03 15:48:26;;;;;;;;;;;;;;;;;;10223048;28;19921;-60
2021/07/03 15:53:23;;;;;;;;;;;;;;;;;;10247930;28;19917;-63
2021/07/03 15:58:20;;;;;;;;;;;;;;;;;;10248229;28;19913;-60
2021/07/03 16:03:18;;;;;;;;;;;;;;;;;;10252436;28;19916;-57
2021/07/03 16:08:15;;;;;;;;;;;;;;;;;;10269282;28;19909;-59
2021/07/03 16:13:13;;;;;;;;;;;;;;;;;;10258124;28;19920;-59
2021/07/03 16:18:10;;;;;;;;;;;;;;;;;;10288300;28;20339;-62
2021/07/03 16:23:09;;;;;;;;;;;;;;;;;;10271862;28;20785;-61
2021/07/03 16:28:07;;;;;;;;;;;;;;;;;;10247561;28;20399;-61
2021/07/03 16:33:04;;;;;;;;;;;;;;;;;;10268606;28;19916;-60
2021/07/03 16:38:01;;;;;;;;;;;;;;;;;;10267557;28;20465;-60
2021/07/03 16:42:58;;;;;;;;;;;;;;;;;;10257719;28;20229;-59
2021/07/03 16:47:56;;;;;;;;;;;;;;;;;;10260603;28;19932;-62
2021/07/03 16:52:53;;;;;;;;;;;;;;;;;;10266329;28;20383;-61
2021/07/03 16:57:50;;;;;;;;;;;;;;;;;;10265498;28;20260;-63
2021/07/03 17:02:48;;;;;;;;;;;;;;;;;;10262381;28;19918;-55
2021/07/03 17:07:45;;;;;;;;;;;;;;;;;;10271767;28;19959;-58
2021/07/03 17:12:42;;;;;;;;;;;;;;;;;;10262119;28;19979;-58
2021/07/03 17:17:40;;;;;;;;;;;;;;;;;;10263819;28;20489;-57
2021/07/03 17:22:37;;;;;;;;;;;;;;;;;;10265918;28;20016;-58
2021/07/03 17:27:34;;;;;;;;;;;;;;;;;;10236748;28;19913;-57
2021/07/03 17:32:32;;;;;;;;;;;;;;;;;;10270106;28;19956;-56
2021/07/03 17:37:29;;;;;;;;;;;;;;;;;;10262989;28;19983;-57
2021/07/03 17:42:26;;;;;;;;;;;;;;;;;;10254732;28;19924;-58
2021/07/03 17:47:23;;;;;;;;;;;;;;;;;;10264972;28;20383;-58
2021/07/03 17:52:21;;;;;;;;;;;;;;;;;;10241601;28;19917;-58
2021/07/03 17:57:18;;;;;;;;;;;;;;;;;;10255091;28;19917;-59
2021/07/03 18:02:16;;;;;;;;;;;;;;;;;;10250136;28;19913;-63
2021/07/03 18:07:13;;;;;;;;;;;;;;;;;;10272988;28;20394;-59
2021/07/03 18:12:10;;;;;;;;;;;;;;;;;;10262467;28;19929;-61
2021/07/03 18:17:07;;;;;;;;;;;;;;;;;;10255207;28;20288;-61
2021/07/03 18:22:05;;;;;;;;;;;;;;;;;;10275686;28;19913;-61
2021/07/03 18:27:02;;;;;;;;;;;;;;;;;;10267433;28;19999;-61
2021/07/03 18:31:59;;;;;;;;;;;;;;;;;;10254605;28;19925;-60
2021/07/03 18:36:57;;;;;;;;;;;;;;;;;;10267117;28;19913;-59
2021/07/03 18:41:55;;;;;;;;;;;;;;;;;;10261005;28;19917;-58
2021/07/03 18:47:19;;;;;;;;;;;;;;;;;;10264188;28;19925;-59
2021/07/03 18:52:16;;;;;;;;;;;;;;;;;;10250329;28;19918;-59
2021/07/03 18:57:13;;;;;;;;;;;;;;;;;;10265055;28;19913;-60
2021/07/03 19:02:11;;;;;;;;;;;;;;;;;;10265026;28;19913;-58
2021/07/03 19:07:08;;;;;;;;;;;;;;;;;;10256841;28;19920;-58
2021/07/03 19:12:05;;;;;;;;;;;;;;;;;;10283952;28;19921;-59
2021/07/03 19:17:03;;;;;;;;;;;;;;;;;;10255128;28;20004;-60
2021/07/03 19:22:00;;;;;;;;;;;;;;;;;;10267234;28;20043;-59
2021/07/03 19:26:57;;;;;;;;;;;;;;;;;;10273017;28;19913;-58
2021/07/03 19:31:55;;;;;;;;;;;;;;;;;;10256241;28;19920;-61
2021/07/03 19:36:52;;;;;;;;;;;;;;;;;;10277285;28;19913;-59
2021/07/03 19:41:49;;;;;;;;;;;;;;;;;;10266364;28;20430;-59
2021/07/03 19:46:47;;;;;;;;;;;;;;;;;;10281421;28;19970;-59
2021/07/03 19:51:44;;;;;;;;;;;;;;;;;;10263485;28;19967;-58
2021/07/03 19:56:41;;;;;;;;;;;;;;;;;;10268527;28;20203;-59
2021/07/03 20:01:39;;;;;;;;;;;;;;;;;;10262846;28;19918;-58
2021/07/03 20:06:36;;;;;;;;;;;;;;;;;;10261110;28;20000;-59
2021/07/03 20:11:33;;;;;;;;;;;;;;;;;;10280150;28;20269;-58
2021/07/03 20:16:31;;;;;;;;;;;;;;;;;;10247796;28;19916;-57
2021/07/03 20:21:28;;;;;;;;;;;;;;;;;;10258383;28;19925;-57
2021/07/03 20:26:30;;;;;;;;;;;;;;;;;;10268675;28;19923;-59
2021/07/03 20:31:27;;;;;;;;;;;;;;;;;;10237116;28;19975;-59
2021/07/03 20:36:25;;;;;;;;;;;;;;;;;;10270695;28;19920;-58
2021/07/03 20:41:22;;;;;;;;;;;;;;;;;;10252815;28;19927;-58
2021/07/03 20:46:19;;;;;;;;;;;;;;;;;;10261847;28;20274;-57
2021/07/03 20:51:16;;;;;;;;;;;;;;;;;;10261305;28;19920;-57
2021/07/03 20:56:14;;;;;;;;;;;;;;;;;;10249720;28;19916;-57
2021/07/03 21:01:11;;;;;;;;;;;;;;;;;;10258950;28;19917;-57
2021/07/03 21:06:11;;;;;;;;;;;;;;;;;;10262983;28;20011;-57
2021/07/03 21:11:10;;;;;;;;;;;;;;;;;;10233455;28;19963;-57
2021/07/03 21:16:07;;;;;;;;;;;;;;;;;;10262073;28;19966;-58
2021/07/03 21:21:05;;;;;;;;;;;;;;;;;;10247135;28;22169;-57
2021/07/03 21:26:03;;;;;;;;;;;;;;;;;;10252842;28;20376;-57
2021/07/03 21:31:01;;;;;;;;;;;;;;;;;;10241749;28;19916;-57
2021/07/03 21:35:58;;;;;;;;;;;;;;;;;;10239434;28;19925;-56
2021/07/03 21:40:55;;;;;;;;;;;;;;;;;;10262400;28;20316;-57
2021/07/03 21:45:55;;;;;;;;;;;;;;;;;;10254314;28;19913;-57
2021/07/03 21:50:52;;;;;;;;;;;;;;;;;;10248146;28;20107;-57
2021/07/03 21:55:50;;;;;;;;;;;;;;;;;;10258278;28;19916;-57
2021/07/03 22:00:47;;;;;;;;;;;;;;;;;;10254375;28;19952;-57
2021/07/03 22:05:44;;;;;;;;;;;;;;;;;;10252122;28;20323;-57
2021/07/03 22:10:42;;;;;;;;;;;;;;;;;;10249246;28;19917;-56
2021/07/03 22:15:39;;;;;;;;;;;;;;;;;;10243492;28;19916;-57
2021/07/03 22:20:36;;;;;;;;;;;;;;;;;;10244505;28;20639;-56
2021/07/03 22:25:34;;;;;;;;;;;;;;;;;;10255610;28;19909;-57
2021/07/03 22:30:35;;;;;;;;;;;;;;;;;;10262471;28;19943;-57
2021/07/03 22:35:33;;;;;;;;;;;;;;;;;;10266937;28;20008;-58
2021/07/03 22:40:34;;;;;;;;;;;;;;;;;;10248290;28;20392;-56
2021/07/03 22:45:31;;;;;;;;;;;;;;;;;;10247608;28;19913;-57
2021/07/03 22:50:29;;;;;;;;;;;;;;;;;;10226890;28;19917;-57
2021/07/03 22:55:26;;;;;;;;;;;;;;;;;;10249310;28;19917;-57
2021/07/03 23:00:23;;;;;;;;;;;;;;;;;;10240868;28;19913;-57
2021/07/03 23:05:21;;;;;;;;;;;;;;;;;;10257823;28;19932;-56
2021/07/03 23:10:18;;;;;;;;;;;;;;;;;;10232487;28;19921;-58
2021/07/03 23:15:15;;;;;;;;;;;;;;;;;;10226354;28;19913;-57
2021/07/03 23:20:13;;;;;;;;;;;;;;;;;;10224121;28;20311;-57
2021/07/03 23:25:10;;;;;;;;;;;;;;;;;;10266294;28;19909;-58
2021/07/03 23:30:07;;;;;;;;;;;;;;;;;;10254893;28;19932;-59
2021/07/03 23:35:04;;;;;;;;;;;;;;;;;;10265428;28;19913;-62
2021/07/03 23:40:02;;;;;;;;;;;;;;;;;;10275431;28;20277;-61
2021/07/03 23:45:01;;;;;;;;;;;;;;;;;;10260038;28;19917;-60
2021/07/03 23:49:58;;;;;;;;;;;;;;;;;;10267929;28;20010;-60
2021/07/03 23:54:55;;;;;;;;;;;;;;;;;;10270219;28;20008;-58
2021/07/03 23:59:53;;;;;;;;;;;;;;;;;;10247389;28;19909;-57
